עמוד ראשי
METAR-TAF:

METAR-TAF

שדות תעופה :

קשקאיש, פורטוגל

קו רוחב: 38-43-32N, קו אורך: 009-21-19W, גובה: 99מטר

תצפית מזג אוויר נוכחית

הדו"ח נערך לפני 21דקות, בשעה 12:30 UTC
רוח 13קשר מכיוון צפון
טמפרטורת 25 צלסיוס
לחות 50%
לחץ 1017 hPa
ראות 10 קילומטר או יותר
מעט עננים בגובה 1800רגל

METAR: LPCS 171230Z 01013KT 9999 FEW018 25/14 Q1017

זמן: 13:51 (12:51 UTC)

תחזית

הדו"ח נערך לפני 1 שעות ו 51דקות, בשעה 11:00 UTC
תחזית בתוקף מ 17 ב 12 UTC עד 17 ב 21 UTC
רוח 12קשר מכיוון צפון
ראות 10 קילומטר או יותר
מעט עננים בגובה 1800רגל
יעשה מ
17 ב 16 UTC עד 17 ב 18 UTC
רוח 17קשר מכיוון צפון
ראות 10 קילומטר או יותר
ללא עננים שבסיסם נמוך מ 5000 רגל או קומולונימבוס

TAF: LPCS 171100Z 1712/1721 36012KT 9999 FEW018 BECMG 1716/1718 35017KT CAVOK

תצפיות ותחזיות מזג אוויר לגבי יותר מ- 4,000 שדות תעופה ברחבי העולם. דוחות METAR ו- TAF.

התחנות הזמינות מסומנות בנקודות צהובות ואדומות על גבי המפה.

העבר את העכבר לנקודה הצבעונית על מנת לראות את שם התחנה.

לאחר מכן, לחץ כדי לראות את תוכן ואת תחזיות מזג האוויר.

כדי לשנות את המפה: לחץ על הכפתורים הירוקים עם הפלוס השחור כדי להתקרב; על הכפתור הירוק עם המקף כדי להתרחק; או בחיצים הירוקים למפות סמוכות.


METAR-TAF: